sensor_id;sensor_type;location;lat;lon;timestamp;P1;durP1;ratioP1;P2;durP2;ratioP2
66523;SDS011;53350;52.210;5.160;2023-04-30T00:01:35;11.90;;;6.28;;
66523;SDS011;53350;52.210;5.160;2023-04-30T00:04:03;10.93;;;6.70;;
66523;SDS011;53350;52.210;5.160;2023-04-30T00:06:29;14.82;;;7.00;;
66523;SDS011;53350;52.210;5.160;2023-04-30T00:08:56;15.85;;;7.40;;
66523;SDS011;53350;52.210;5.160;2023-04-30T00:11:22;13.20;;;6.85;;
66523;SDS011;53350;52.210;5.160;2023-04-30T00:13:50;13.80;;;7.68;;
66523;SDS011;53350;52.210;5.160;2023-04-30T00:16:16;12.48;;;6.43;;
66523;SDS011;53350;52.210;5.160;2023-04-30T00:18:43;10.98;;;6.97;;
66523;SDS011;53350;52.210;5.160;2023-04-30T00:21:11;13.68;;;6.95;;
66523;SDS011;53350;52.210;5.160;2023-04-30T00:23:37;13.80;;;6.95;;
66523;SDS011;53350;52.210;5.160;2023-04-30T00:26:04;13.35;;;7.03;;
66523;SDS011;53350;52.210;5.160;2023-04-30T00:28:30;15.90;;;8.27;;
66523;SDS011;53350;52.210;5.160;2023-04-30T00:30:57;19.20;;;7.68;;
66523;SDS011;53350;52.210;5.160;2023-04-30T00:33:23;17.42;;;8.02;;
66523;SDS011;53350;52.210;5.160;2023-04-30T00:35:50;12.13;;;7.05;;
66523;SDS011;53350;52.210;5.160;2023-04-30T00:38:17;15.13;;;7.95;;
66523;SDS011;53350;52.210;5.160;2023-04-30T00:40:44;17.27;;;10.07;;
66523;SDS011;53350;52.210;5.160;2023-04-30T00:43:11;15.60;;;9.32;;
66523;SDS011;53350;52.210;5.160;2023-04-30T00:45:38;19.60;;;9.93;;
66523;SDS011;53350;52.210;5.160;2023-04-30T00:48:04;19.45;;;10.70;;
66523;SDS011;53350;52.210;5.160;2023-04-30T00:50:31;15.30;;;8.93;;
66523;SDS011;53350;52.210;5.160;2023-04-30T00:53:00;16.92;;;9.63;;
66523;SDS011;53350;52.210;5.160;2023-04-30T00:55:28;16.38;;;8.73;;
66523;SDS011;53350;52.210;5.160;2023-04-30T00:57:55;17.80;;;8.40;;
66523;SDS011;53350;52.210;5.160;2023-04-30T01:00:22;17.88;;;8.40;;
66523;SDS011;53350;52.210;5.160;2023-04-30T01:02:49;15.00;;;8.88;;
66523;SDS011;53350;52.210;5.160;2023-04-30T01:05:15;17.35;;;8.55;;
66523;SDS011;53350;52.210;5.160;2023-04-30T01:07:42;12.75;;;7.53;;
66523;SDS011;53350;52.210;5.160;2023-04-30T01:10:10;13.15;;;8.35;;
66523;SDS011;53350;52.210;5.160;2023-04-30T01:12:40;13.00;;;7.50;;
66523;SDS011;53350;52.210;5.160;2023-04-30T01:15:13;17.52;;;8.38;;
66523;SDS011;53350;52.210;5.160;2023-04-30T01:17:47;15.45;;;7.55;;
66523;SDS011;53350;52.210;5.160;2023-04-30T01:20:21;13.55;;;7.78;;
66523;SDS011;53350;52.210;5.160;2023-04-30T01:22:50;19.15;;;8.52;;
66523;SDS011;53350;52.210;5.160;2023-04-30T01:25:28;15.20;;;8.88;;
66523;SDS011;53350;52.210;5.160;2023-04-30T01:28:03;17.30;;;8.98;;
66523;SDS011;53350;52.210;5.160;2023-04-30T01:30:31;14.45;;;8.52;;
66523;SDS011;53350;52.210;5.160;2023-04-30T01:32:58;12.80;;;7.70;;
66523;SDS011;53350;52.210;5.160;2023-04-30T01:35:28;15.40;;;8.15;;
66523;SDS011;53350;52.210;5.160;2023-04-30T01:38:08;15.70;;;8.07;;
66523;SDS011;53350;52.210;5.160;2023-04-30T01:40:42;16.55;;;9.25;;
66523;SDS011;53350;52.210;5.160;2023-04-30T01:43:16;15.68;;;8.13;;
66523;SDS011;53350;52.210;5.160;2023-04-30T01:45:54;15.07;;;7.80;;
66523;SDS011;53350;52.210;5.160;2023-04-30T01:48:27;15.13;;;8.43;;
66523;SDS011;53350;52.210;5.160;2023-04-30T01:51:05;18.08;;;9.02;;
66523;SDS011;53350;52.210;5.160;2023-04-30T01:53:40;19.42;;;10.15;;
66523;SDS011;53350;52.210;5.160;2023-04-30T01:56:10;18.00;;;10.23;;
66523;SDS011;53350;52.210;5.160;2023-04-30T01:58:43;18.75;;;10.27;;
66523;SDS011;53350;52.210;5.160;2023-04-30T02:01:24;17.55;;;10.32;;
66523;SDS011;53350;52.210;5.160;2023-04-30T02:03:51;21.00;;;10.70;;
66523;SDS011;53350;52.210;5.160;2023-04-30T02:06:17;17.52;;;10.77;;
66523;SDS011;53350;52.210;5.160;2023-04-30T02:08:44;21.65;;;10.15;;
66523;SDS011;53350;52.210;5.160;2023-04-30T02:11:10;22.15;;;9.63;;
66523;SDS011;53350;52.210;5.160;2023-04-30T02:13:36;18.63;;;10.15;;
66523;SDS011;53350;52.210;5.160;2023-04-30T02:16:05;19.35;;;10.25;;
66523;SDS011;53350;52.210;5.160;2023-04-30T02:20:58;17.45;;;9.02;;
66523;SDS011;53350;52.210;5.160;2023-04-30T02:23:24;15.98;;;9.02;;
66523;SDS011;53350;52.210;5.160;2023-04-30T02:25:51;14.38;;;9.20;;
66523;SDS011;53350;52.210;5.160;2023-04-30T02:28:17;18.27;;;9.00;;
66523;SDS011;53350;52.210;5.160;2023-04-30T02:30:44;16.20;;;9.10;;
66523;SDS011;53350;52.210;5.160;2023-04-30T02:33:11;14.60;;;8.77;;
66523;SDS011;53350;52.210;5.160;2023-04-30T02:35:39;19.17;;;10.35;;
66523;SDS011;53350;52.210;5.160;2023-04-30T02:38:06;15.52;;;10.45;;
66523;SDS011;53350;52.210;5.160;2023-04-30T02:40:32;21.08;;;11.52;;
66523;SDS011;53350;52.210;5.160;2023-04-30T02:42:59;16.67;;;10.75;;
66523;SDS011;53350;52.210;5.160;2023-04-30T02:45:25;20.17;;;10.48;;
66523;SDS011;53350;52.210;5.160;2023-04-30T02:47:52;19.17;;;11.35;;
66523;SDS011;53350;52.210;5.160;2023-04-30T02:50:19;21.63;;;12.43;;
66523;SDS011;53350;52.210;5.160;2023-04-30T02:52:46;24.33;;;11.02;;
66523;SDS011;53350;52.210;5.160;2023-04-30T02:55:12;19.45;;;10.93;;
66523;SDS011;53350;52.210;5.160;2023-04-30T02:57:39;19.48;;;11.05;;
66523;SDS011;53350;52.210;5.160;2023-04-30T03:00:06;21.73;;;11.02;;
66523;SDS011;53350;52.210;5.160;2023-04-30T03:02:33;18.85;;;10.52;;
66523;SDS011;53350;52.210;5.160;2023-04-30T03:05:00;17.55;;;10.38;;
66523;SDS011;53350;52.210;5.160;2023-04-30T03:07:28;17.05;;;10.55;;
66523;SDS011;53350;52.210;5.160;2023-04-30T03:09:54;16.40;;;9.95;;
66523;SDS011;53350;52.210;5.160;2023-04-30T03:12:21;21.60;;;9.90;;
66523;SDS011;53350;52.210;5.160;2023-04-30T03:14:47;19.40;;;9.85;;
66523;SDS011;53350;52.210;5.160;2023-04-30T03:17:14;14.85;;;8.65;;
66523;SDS011;53350;52.210;5.160;2023-04-30T03:19:40;16.75;;;9.68;;
66523;SDS011;53350;52.210;5.160;2023-04-30T03:22:07;16.90;;;9.90;;
66523;SDS011;53350;52.210;5.160;2023-04-30T03:24:35;17.20;;;9.15;;
66523;SDS011;53350;52.210;5.160;2023-04-30T03:27:01;15.95;;;9.27;;
66523;SDS011;53350;52.210;5.160;2023-04-30T03:29:27;15.43;;;8.75;;
66523;SDS011;53350;52.210;5.160;2023-04-30T03:31:54;15.10;;;8.73;;
66523;SDS011;53350;52.210;5.160;2023-04-30T03:34:20;16.95;;;9.00;;
66523;SDS011;53350;52.210;5.160;2023-04-30T03:36:47;14.32;;;8.80;;
66523;SDS011;53350;52.210;5.160;2023-04-30T03:39:13;15.43;;;8.77;;
66523;SDS011;53350;52.210;5.160;2023-04-30T03:41:41;18.30;;;9.65;;
66523;SDS011;53350;52.210;5.160;2023-04-30T03:44:07;16.52;;;9.30;;
66523;SDS011;53350;52.210;5.160;2023-04-30T03:46:39;18.42;;;9.63;;
66523;SDS011;53350;52.210;5.160;2023-04-30T03:49:06;15.93;;;8.95;;
66523;SDS011;53350;52.210;5.160;2023-04-30T03:51:32;13.77;;;8.85;;
66523;SDS011;53350;52.210;5.160;2023-04-30T03:54:03;17.00;;;9.02;;
66523;SDS011;53350;52.210;5.160;2023-04-30T03:56:30;20.05;;;9.48;;
66523;SDS011;53350;52.210;5.160;2023-04-30T03:58:58;16.50;;;9.07;;
66523;SDS011;53350;52.210;5.160;2023-04-30T04:01:24;13.75;;;9.48;;
66523;SDS011;53350;52.210;5.160;2023-04-30T04:03:51;15.27;;;9.25;;
66523;SDS011;53350;52.210;5.160;2023-04-30T04:06:18;16.48;;;8.82;;
66523;SDS011;53350;52.210;5.160;2023-04-30T04:08:45;13.77;;;8.65;;
66523;SDS011;53350;52.210;5.160;2023-04-30T04:11:12;13.88;;;8.82;;
66523;SDS011;53350;52.210;5.160;2023-04-30T04:13:38;13.70;;;7.95;;
66523;SDS011;53350;52.210;5.160;2023-04-30T04:16:06;15.13;;;8.07;;
66523;SDS011;53350;52.210;5.160;2023-04-30T04:18:33;14.85;;;8.27;;
66523;SDS011;53350;52.210;5.160;2023-04-30T04:21:00;14.10;;;8.23;;
66523;SDS011;53350;52.210;5.160;2023-04-30T04:23:26;11.82;;;8.10;;
66523;SDS011;53350;52.210;5.160;2023-04-30T04:25:53;15.80;;;7.53;;
66523;SDS011;53350;52.210;5.160;2023-04-30T04:28:21;12.73;;;7.13;;
66523;SDS011;53350;52.210;5.160;2023-04-30T04:30:48;15.30;;;7.80;;
66523;SDS011;53350;52.210;5.160;2023-04-30T04:33:15;12.13;;;6.93;;
66523;SDS011;53350;52.210;5.160;2023-04-30T04:35:42;13.05;;;6.88;;
66523;SDS011;53350;52.210;5.160;2023-04-30T04:38:08;13.50;;;7.15;;
66523;SDS011;53350;52.210;5.160;2023-04-30T04:40:35;13.18;;;6.50;;
66523;SDS011;53350;52.210;5.160;2023-04-30T04:43:02;10.55;;;6.60;;
66523;SDS011;53350;52.210;5.160;2023-04-30T04:45:28;13.68;;;7.55;;
66523;SDS011;53350;52.210;5.160;2023-04-30T04:47:55;13.52;;;7.68;;
66523;SDS011;53350;52.210;5.160;2023-04-30T04:50:23;10.82;;;6.63;;
66523;SDS011;53350;52.210;5.160;2023-04-30T04:52:49;12.93;;;6.80;;
66523;SDS011;53350;52.210;5.160;2023-04-30T04:55:17;14.07;;;6.63;;
66523;SDS011;53350;52.210;5.160;2023-04-30T04:57:44;13.43;;;7.10;;
66523;SDS011;53350;52.210;5.160;2023-04-30T05:00:11;12.05;;;7.05;;
66523;SDS011;53350;52.210;5.160;2023-04-30T05:02:38;13.45;;;6.82;;
66523;SDS011;53350;52.210;5.160;2023-04-30T05:05:04;11.65;;;6.78;;
66523;SDS011;53350;52.210;5.160;2023-04-30T05:07:33;12.00;;;6.82;;
66523;SDS011;53350;52.210;5.160;2023-04-30T05:09:59;12.50;;;6.55;;
66523;SDS011;53350;52.210;5.160;2023-04-30T05:12:26;13.43;;;6.90;;
66523;SDS011;53350;52.210;5.160;2023-04-30T05:14:52;11.65;;;7.22;;
66523;SDS011;53350;52.210;5.160;2023-04-30T05:17:19;13.13;;;7.35;;
66523;SDS011;53350;52.210;5.160;2023-04-30T05:19:45;13.10;;;6.93;;
66523;SDS011;53350;52.210;5.160;2023-04-30T05:22:14;12.15;;;7.00;;
66523;SDS011;53350;52.210;5.160;2023-04-30T05:24:42;11.73;;;6.63;;
66523;SDS011;53350;52.210;5.160;2023-04-30T05:27:08;13.25;;;6.68;;
66523;SDS011;53350;52.210;5.160;2023-04-30T05:29:35;11.20;;;6.35;;
66523;SDS011;53350;52.210;5.160;2023-04-30T05:32:01;13.13;;;6.57;;
66523;SDS011;53350;52.210;5.160;2023-04-30T05:34:28;10.77;;;5.90;;
66523;SDS011;53350;52.210;5.160;2023-04-30T05:36:54;10.75;;;5.80;;
66523;SDS011;53350;52.210;5.160;2023-04-30T05:39:21;14.27;;;7.00;;
66523;SDS011;53350;52.210;5.160;2023-04-30T05:41:48;14.57;;;6.03;;
66523;SDS011;53350;52.210;5.160;2023-04-30T05:44:15;11.77;;;6.00;;
66523;SDS011;53350;52.210;5.160;2023-04-30T05:46:41;11.88;;;5.90;;
66523;SDS011;53350;52.210;5.160;2023-04-30T05:49:08;12.15;;;6.13;;
66523;SDS011;53350;52.210;5.160;2023-04-30T05:51:34;8.93;;;5.40;;
66523;SDS011;53350;52.210;5.160;2023-04-30T05:54:01;11.88;;;6.07;;
66523;SDS011;53350;52.210;5.160;2023-04-30T05:56:27;12.40;;;5.60;;
66523;SDS011;53350;52.210;5.160;2023-04-30T05:58:55;11.57;;;5.03;;
66523;SDS011;53350;52.210;5.160;2023-04-30T06:01:21;11.07;;;5.60;;
66523;SDS011;53350;52.210;5.160;2023-04-30T06:03:48;11.95;;;5.18;;
66523;SDS011;53350;52.210;5.160;2023-04-30T06:06:14;8.18;;;4.82;;
66523;SDS011;53350;52.210;5.160;2023-04-30T06:08:41;11.23;;;5.38;;
66523;SDS011;53350;52.210;5.160;2023-04-30T06:11:09;10.13;;;5.50;;
66523;SDS011;53350;52.210;5.160;2023-04-30T06:13:36;7.90;;;4.60;;
66523;SDS011;53350;52.210;5.160;2023-04-30T06:16:05;11.38;;;5.38;;
66523;SDS011;53350;52.210;5.160;2023-04-30T06:18:32;11.25;;;5.00;;
66523;SDS011;53350;52.210;5.160;2023-04-30T06:20:58;9.05;;;5.03;;
66523;SDS011;53350;52.210;5.160;2023-04-30T06:23:25;10.13;;;5.28;;
66523;SDS011;53350;52.210;5.160;2023-04-30T06:25:51;7.97;;;4.13;;
66523;SDS011;53350;52.210;5.160;2023-04-30T06:28:18;7.60;;;3.72;;
66523;SDS011;53350;52.210;5.160;2023-04-30T06:30:45;8.45;;;4.43;;
66523;SDS011;53350;52.210;5.160;2023-04-30T06:33:13;9.20;;;4.15;;
66523;SDS011;53350;52.210;5.160;2023-04-30T06:35:39;9.05;;;3.95;;
66523;SDS011;53350;52.210;5.160;2023-04-30T06:38:06;9.32;;;4.10;;
66523;SDS011;53350;52.210;5.160;2023-04-30T06:40:32;9.18;;;4.28;;
66523;SDS011;53350;52.210;5.160;2023-04-30T06:42:59;10.00;;;4.38;;
66523;SDS011;53350;52.210;5.160;2023-04-30T06:45:25;9.18;;;3.63;;
66523;SDS011;53350;52.210;5.160;2023-04-30T06:47:53;7.30;;;3.22;;
66523;SDS011;53350;52.210;5.160;2023-04-30T06:50:21;9.02;;;3.40;;
66523;SDS011;53350;52.210;5.160;2023-04-30T06:52:47;6.38;;;3.28;;
66523;SDS011;53350;52.210;5.160;2023-04-30T06:55:14;10.10;;;3.90;;
66523;SDS011;53350;52.210;5.160;2023-04-30T06:57:40;8.63;;;3.45;;
66523;SDS011;53350;52.210;5.160;2023-04-30T07:00:07;8.32;;;3.90;;
66523;SDS011;53350;52.210;5.160;2023-04-30T07:02:34;9.63;;;3.78;;
66523;SDS011;53350;52.210;5.160;2023-04-30T07:05:00;9.38;;;4.05;;
66523;SDS011;53350;52.210;5.160;2023-04-30T07:07:28;7.97;;;4.20;;
66523;SDS011;53350;52.210;5.160;2023-04-30T07:09:55;8.63;;;3.50;;
66523;SDS011;53350;52.210;5.160;2023-04-30T07:12:21;9.35;;;3.35;;
66523;SDS011;53350;52.210;5.160;2023-04-30T07:14:48;8.02;;;3.40;;
66523;SDS011;53350;52.210;5.160;2023-04-30T07:17:14;7.55;;;3.15;;
66523;SDS011;53350;52.210;5.160;2023-04-30T07:19:41;11.13;;;3.85;;
66523;SDS011;53350;52.210;5.160;2023-04-30T07:22:07;6.18;;;3.28;;
66523;SDS011;53350;52.210;5.160;2023-04-30T07:24:35;11.23;;;3.85;;
66523;SDS011;53350;52.210;5.160;2023-04-30T07:27:01;7.78;;;2.78;;
66523;SDS011;53350;52.210;5.160;2023-04-30T07:29:28;9.68;;;3.92;;
66523;SDS011;53350;52.210;5.160;2023-04-30T07:31:54;10.20;;;3.38;;
66523;SDS011;53350;52.210;5.160;2023-04-30T07:34:21;7.38;;;3.50;;
66523;SDS011;53350;52.210;5.160;2023-04-30T07:36:48;11.88;;;4.00;;
66523;SDS011;53350;52.210;5.160;2023-04-30T07:39:14;8.50;;;3.80;;
66523;SDS011;53350;52.210;5.160;2023-04-30T07:41:43;9.95;;;4.03;;
66523;SDS011;53350;52.210;5.160;2023-04-30T07:44:09;9.77;;;3.60;;
66523;SDS011;53350;52.210;5.160;2023-04-30T07:46:36;8.18;;;3.50;;
66523;SDS011;53350;52.210;5.160;2023-04-30T07:49:03;9.05;;;3.70;;
66523;SDS011;53350;52.210;5.160;2023-04-30T07:51:29;9.40;;;3.83;;
66523;SDS011;53350;52.210;5.160;2023-04-30T07:53:56;10.88;;;4.05;;
66523;SDS011;53350;52.210;5.160;2023-04-30T07:56:23;8.32;;;4.00;;
66523;SDS011;53350;52.210;5.160;2023-04-30T07:58:51;7.47;;;3.67;;
66523;SDS011;53350;52.210;5.160;2023-04-30T08:01:17;7.72;;;3.33;;
66523;SDS011;53350;52.210;5.160;2023-04-30T08:03:44;6.82;;;3.33;;
66523;SDS011;53350;52.210;5.160;2023-04-30T08:06:10;7.00;;;3.38;;
66523;SDS011;53350;52.210;5.160;2023-04-30T08:08:36;8.55;;;3.47;;
66523;SDS011;53350;52.210;5.160;2023-04-30T08:11:03;7.07;;;3.25;;
66523;SDS011;53350;52.210;5.160;2023-04-30T08:13:30;7.10;;;3.00;;
66523;SDS011;53350;52.210;5.160;2023-04-30T08:15:58;8.80;;;3.38;;
66523;SDS011;53350;52.210;5.160;2023-04-30T08:18:24;6.93;;;3.30;;
66523;SDS011;53350;52.210;5.160;2023-04-30T08:20:51;9.32;;;3.65;;
66523;SDS011;53350;52.210;5.160;2023-04-30T08:23:17;6.90;;;2.88;;
66523;SDS011;53350;52.210;5.160;2023-04-30T08:25:43;7.68;;;3.10;;
66523;SDS011;53350;52.210;5.160;2023-04-30T08:28:11;7.75;;;3.05;;
66523;SDS011;53350;52.210;5.160;2023-04-30T08:30:38;7.07;;;2.80;;
66523;SDS011;53350;52.210;5.160;2023-04-30T08:33:05;8.32;;;3.00;;
66523;SDS011;53350;52.210;5.160;2023-04-30T08:35:32;7.80;;;3.10;;
66523;SDS011;53350;52.210;5.160;2023-04-30T08:37:58;6.60;;;3.03;;
66523;SDS011;53350;52.210;5.160;2023-04-30T08:40:25;6.95;;;2.97;;
66523;SDS011;53350;52.210;5.160;2023-04-30T08:42:53;6.78;;;2.70;;
66523;SDS011;53350;52.210;5.160;2023-04-30T08:45:29;7.18;;;2.70;;
66523;SDS011;53350;52.210;5.160;2023-04-30T08:47:56;5.47;;;2.53;;
66523;SDS011;53350;52.210;5.160;2023-04-30T08:50:26;7.30;;;2.90;;
66523;SDS011;53350;52.210;5.160;2023-04-30T08:52:53;8.02;;;2.60;;
66523;SDS011;53350;52.210;5.160;2023-04-30T08:55:19;9.93;;;3.00;;
66523;SDS011;53350;52.210;5.160;2023-04-30T08:57:46;4.85;;;2.13;;
66523;SDS011;53350;52.210;5.160;2023-04-30T09:00:13;7.93;;;2.95;;
66523;SDS011;53350;52.210;5.160;2023-04-30T09:02:39;4.85;;;2.30;;
66523;SDS011;53350;52.210;5.160;2023-04-30T09:05:07;6.05;;;2.58;;
66523;SDS011;53350;52.210;5.160;2023-04-30T09:07:37;7.10;;;3.13;;
66523;SDS011;53350;52.210;5.160;2023-04-30T09:10:11;7.70;;;3.25;;
66523;SDS011;53350;52.210;5.160;2023-04-30T09:12:40;8.65;;;2.83;;
66523;SDS011;53350;52.210;5.160;2023-04-30T09:15:10;8.43;;;3.30;;
66523;SDS011;53350;52.210;5.160;2023-04-30T09:17:37;7.45;;;2.70;;
66523;SDS011;53350;52.210;5.160;2023-04-30T09:20:08;7.78;;;3.15;;
66523;SDS011;53350;52.210;5.160;2023-04-30T09:22:35;7.78;;;3.15;;
66523;SDS011;53350;52.210;5.160;2023-04-30T09:25:05;6.57;;;3.17;;
66523;SDS011;53350;52.210;5.160;2023-04-30T09:27:32;6.20;;;3.27;;
66523;SDS011;53350;52.210;5.160;2023-04-30T09:29:58;6.30;;;3.50;;
66523;SDS011;53350;52.210;5.160;2023-04-30T09:32:25;7.28;;;3.22;;
66523;SDS011;53350;52.210;5.160;2023-04-30T09:34:52;7.95;;;3.20;;
66523;SDS011;53350;52.210;5.160;2023-04-30T09:37:18;7.93;;;2.75;;
66523;SDS011;53350;52.210;5.160;2023-04-30T09:39:46;8.52;;;3.60;;
66523;SDS011;53350;52.210;5.160;2023-04-30T09:42:14;7.60;;;4.00;;
66523;SDS011;53350;52.210;5.160;2023-04-30T09:44:41;7.10;;;3.30;;
66523;SDS011;53350;52.210;5.160;2023-04-30T09:47:11;6.22;;;2.92;;
66523;SDS011;53350;52.210;5.160;2023-04-30T09:49:40;9.88;;;3.60;;
66523;SDS011;53350;52.210;5.160;2023-04-30T09:52:08;6.90;;;3.50;;
66523;SDS011;53350;52.210;5.160;2023-04-30T09:54:34;6.38;;;3.38;;
66523;SDS011;53350;52.210;5.160;2023-04-30T09:57:02;9.80;;;2.95;;
66523;SDS011;53350;52.210;5.160;2023-04-30T09:59:30;8.52;;;3.80;;
66523;SDS011;53350;52.210;5.160;2023-04-30T10:01:59;7.30;;;3.20;;
66523;SDS011;53350;52.210;5.160;2023-04-30T10:04:28;6.22;;;2.78;;
66523;SDS011;53350;52.210;5.160;2023-04-30T10:06:57;7.70;;;3.42;;
66523;SDS011;53350;52.210;5.160;2023-04-30T10:09:25;6.13;;;2.65;;
66523;SDS011;53350;52.210;5.160;2023-04-30T10:11:55;8.27;;;3.58;;
66523;SDS011;53350;52.210;5.160;2023-04-30T10:14:24;6.35;;;2.92;;
66523;SDS011;53350;52.210;5.160;2023-04-30T10:16:56;8.55;;;3.35;;
66523;SDS011;53350;52.210;5.160;2023-04-30T10:19:29;7.15;;;3.22;;
66523;SDS011;53350;52.210;5.160;2023-04-30T10:24:23;8.15;;;3.08;;
66523;SDS011;53350;52.210;5.160;2023-04-30T10:26:50;7.73;;;2.73;;
66523;SDS011;53350;52.210;5.160;2023-04-30T10:29:17;6.82;;;2.90;;
66523;SDS011;53350;52.210;5.160;2023-04-30T10:31:45;7.95;;;3.28;;
66523;SDS011;53350;52.210;5.160;2023-04-30T10:34:20;9.73;;;3.42;;
66523;SDS011;53350;52.210;5.160;2023-04-30T10:39:25;9.13;;;3.25;;
66523;SDS011;53350;52.210;5.160;2023-04-30T10:42:00;9.45;;;3.10;;
66523;SDS011;53350;52.210;5.160;2023-04-30T10:44:29;5.95;;;3.00;;
66523;SDS011;53350;52.210;5.160;2023-04-30T10:46:58;7.90;;;3.22;;
66523;SDS011;53350;52.210;5.160;2023-04-30T10:49:26;7.10;;;2.97;;
66523;SDS011;53350;52.210;5.160;2023-04-30T10:51:53;8.10;;;3.17;;
66523;SDS011;53350;52.210;5.160;2023-04-30T10:54:22;5.50;;;2.97;;
66523;SDS011;53350;52.210;5.160;2023-04-30T10:56:51;7.05;;;2.83;;
66523;SDS011;53350;52.210;5.160;2023-04-30T10:59:20;6.43;;;3.40;;
66523;SDS011;53350;52.210;5.160;2023-04-30T11:01:54;7.97;;;2.97;;
66523;SDS011;53350;52.210;5.160;2023-04-30T11:04:24;6.13;;;2.88;;
66523;SDS011;53350;52.210;5.160;2023-04-30T11:09:23;6.43;;;2.88;;
66523;SDS011;53350;52.210;5.160;2023-04-30T11:12:01;6.03;;;2.92;;
66523;SDS011;53350;52.210;5.160;2023-04-30T11:14:30;5.30;;;2.88;;
66523;SDS011;53350;52.210;5.160;2023-04-30T11:16:58;6.57;;;2.72;;
66523;SDS011;53350;52.210;5.160;2023-04-30T11:19:26;6.25;;;2.35;;
66523;SDS011;53350;52.210;5.160;2023-04-30T11:24:53;8.70;;;3.00;;
66523;SDS011;53350;52.210;5.160;2023-04-30T11:27:30;6.30;;;3.00;;
66523;SDS011;53350;52.210;5.160;2023-04-30T11:29:58;6.10;;;2.80;;
66523;SDS011;53350;52.210;5.160;2023-04-30T11:32:26;9.10;;;2.88;;
66523;SDS011;53350;52.210;5.160;2023-04-30T11:34:59;9.77;;;3.20;;
66523;SDS011;53350;52.210;5.160;2023-04-30T11:39:55;8.57;;;3.10;;
66523;SDS011;53350;52.210;5.160;2023-04-30T11:42:22;8.50;;;3.57;;
66523;SDS011;53350;52.210;5.160;2023-04-30T11:44:49;7.85;;;3.25;;
66523;SDS011;53350;52.210;5.160;2023-04-30T11:47:15;5.45;;;2.42;;
66523;SDS011;53350;52.210;5.160;2023-04-30T11:49:41;7.15;;;3.00;;
66523;SDS011;53350;52.210;5.160;2023-04-30T11:52:09;7.97;;;3.03;;
66523;SDS011;53350;52.210;5.160;2023-04-30T11:54:38;7.78;;;3.30;;
66523;SDS011;53350;52.210;5.160;2023-04-30T11:57:04;6.75;;;2.92;;
66523;SDS011;53350;52.210;5.160;2023-04-30T11:59:31;7.45;;;3.05;;
66523;SDS011;53350;52.210;5.160;2023-04-30T12:02:05;10.77;;;3.40;;
66523;SDS011;53350;52.210;5.160;2023-04-30T12:04:31;8.88;;;3.20;;
66523;SDS011;53350;52.210;5.160;2023-04-30T12:06:58;5.65;;;3.10;;
66523;SDS011;53350;52.210;5.160;2023-04-30T12:09:27;6.95;;;3.08;;
66523;SDS011;53350;52.210;5.160;2023-04-30T12:11:54;5.18;;;2.95;;
66523;SDS011;53350;52.210;5.160;2023-04-30T12:14:23;6.63;;;3.15;;
66523;SDS011;53350;52.210;5.160;2023-04-30T12:16:50;5.90;;;2.95;;
66523;SDS011;53350;52.210;5.160;2023-04-30T12:19:17;5.50;;;2.90;;
66523;SDS011;53350;52.210;5.160;2023-04-30T12:21:46;7.35;;;3.33;;
66523;SDS011;53350;52.210;5.160;2023-04-30T12:24:14;5.55;;;2.72;;
66523;SDS011;53350;52.210;5.160;2023-04-30T12:26:43;5.82;;;2.50;;
66523;SDS011;53350;52.210;5.160;2023-04-30T12:29:13;7.38;;;2.72;;
66523;SDS011;53350;52.210;5.160;2023-04-30T12:31:40;6.80;;;2.72;;
66523;SDS011;53350;52.210;5.160;2023-04-30T12:34:08;8.00;;;2.88;;
66523;SDS011;53350;52.210;5.160;2023-04-30T12:36:37;6.70;;;2.70;;
66523;SDS011;53350;52.210;5.160;2023-04-30T12:39:07;7.18;;;2.33;;
66523;SDS011;53350;52.210;5.160;2023-04-30T12:41:35;5.68;;;2.50;;
66523;SDS011;53350;52.210;5.160;2023-04-30T12:46:46;5.60;;;2.55;;
66523;SDS011;53350;52.210;5.160;2023-04-30T12:49:23;6.47;;;2.90;;
66523;SDS011;53350;52.210;5.160;2023-04-30T12:51:51;8.48;;;2.63;;
66523;SDS011;53350;52.210;5.160;2023-04-30T12:54:24;5.50;;;2.50;;
66523;SDS011;53350;52.210;5.160;2023-04-30T12:56:58;7.97;;;2.40;;
66523;SDS011;53350;52.210;5.160;2023-04-30T12:59:27;8.65;;;2.15;;
66523;SDS011;53350;52.210;5.160;2023-04-30T13:04:20;4.70;;;2.22;;
66523;SDS011;53350;52.210;5.160;2023-04-30T13:06:47;6.10;;;2.40;;
66523;SDS011;53350;52.210;5.160;2023-04-30T13:09:14;6.57;;;2.17;;
66523;SDS011;53350;52.210;5.160;2023-04-30T13:11:40;4.80;;;2.40;;
66523;SDS011;53350;52.210;5.160;2023-04-30T13:14:07;10.18;;;2.50;;
66523;SDS011;53350;52.210;5.160;2023-04-30T13:16:36;5.25;;;2.20;;
66523;SDS011;53350;52.210;5.160;2023-04-30T13:19:03;5.22;;;1.98;;
66523;SDS011;53350;52.210;5.160;2023-04-30T13:21:29;3.58;;;1.88;;
66523;SDS011;53350;52.210;5.160;2023-04-30T13:23:56;6.22;;;2.00;;
66523;SDS011;53350;52.210;5.160;2023-04-30T13:26:23;4.47;;;2.00;;
66523;SDS011;53350;52.210;5.160;2023-04-30T13:28:50;4.60;;;1.95;;
66523;SDS011;53350;52.210;5.160;2023-04-30T13:31:16;8.50;;;2.70;;
66523;SDS011;53350;52.210;5.160;2023-04-30T13:33:44;5.03;;;2.03;;
66523;SDS011;53350;52.210;5.160;2023-04-30T13:36:11;5.22;;;2.20;;
66523;SDS011;53350;52.210;5.160;2023-04-30T13:38:37;5.97;;;1.80;;
66523;SDS011;53350;52.210;5.160;2023-04-30T13:41:04;4.75;;;2.05;;
66523;SDS011;53350;52.210;5.160;2023-04-30T13:43:30;3.65;;;1.80;;
66523;SDS011;53350;52.210;5.160;2023-04-30T13:45:57;6.03;;;2.05;;
66523;SDS011;53350;52.210;5.160;2023-04-30T13:48:24;4.57;;;2.30;;
66523;SDS011;53350;52.210;5.160;2023-04-30T13:50:51;4.60;;;1.95;;
66523;SDS011;53350;52.210;5.160;2023-04-30T13:53:19;4.93;;;1.85;;
66523;SDS011;53350;52.210;5.160;2023-04-30T13:55:45;5.28;;;2.13;;
66523;SDS011;53350;52.210;5.160;2023-04-30T13:58:12;3.80;;;1.83;;
66523;SDS011;53350;52.210;5.160;2023-04-30T14:00:38;6.60;;;2.60;;
66523;SDS011;53350;52.210;5.160;2023-04-30T14:03:05;6.85;;;2.95;;
66523;SDS011;53350;52.210;5.160;2023-04-30T14:05:32;5.35;;;2.03;;
66523;SDS011;53350;52.210;5.160;2023-04-30T14:08:00;4.57;;;1.63;;
66523;SDS011;53350;52.210;5.160;2023-04-30T14:10:27;8.07;;;1.88;;
66523;SDS011;53350;52.210;5.160;2023-04-30T14:12:53;4.43;;;1.60;;
66523;SDS011;53350;52.210;5.160;2023-04-30T14:15:19;6.20;;;1.90;;
66523;SDS011;53350;52.210;5.160;2023-04-30T14:17:46;6.70;;;2.33;;
66523;SDS011;53350;52.210;5.160;2023-04-30T14:20:13;5.05;;;1.90;;
66523;SDS011;53350;52.210;5.160;2023-04-30T14:22:40;10.40;;;2.20;;
66523;SDS011;53350;52.210;5.160;2023-04-30T14:25:09;5.57;;;1.92;;
66523;SDS011;53350;52.210;5.160;2023-04-30T14:27:36;3.28;;;1.67;;
66523;SDS011;53350;52.210;5.160;2023-04-30T14:30:03;5.10;;;1.70;;
66523;SDS011;53350;52.210;5.160;2023-04-30T14:32:30;4.47;;;1.60;;
66523;SDS011;53350;52.210;5.160;2023-04-30T14:34:56;4.78;;;1.20;;
66523;SDS011;53350;52.210;5.160;2023-04-30T14:37:23;4.55;;;1.65;;
66523;SDS011;53350;52.210;5.160;2023-04-30T14:39:50;3.97;;;1.50;;
66523;SDS011;53350;52.210;5.160;2023-04-30T14:42:17;6.13;;;2.67;;
66523;SDS011;53350;52.210;5.160;2023-04-30T14:44:44;5.95;;;2.08;;
66523;SDS011;53350;52.210;5.160;2023-04-30T14:47:11;3.30;;;1.40;;
66523;SDS011;53350;52.210;5.160;2023-04-30T14:49:38;6.07;;;1.60;;
66523;SDS011;53350;52.210;5.160;2023-04-30T14:52:05;6.13;;;1.55;;
66523;SDS011;53350;52.210;5.160;2023-04-30T14:54:31;4.38;;;1.65;;
66523;SDS011;53350;52.210;5.160;2023-04-30T14:56:58;4.78;;;1.60;;
66523;SDS011;53350;52.210;5.160;2023-04-30T14:59:25;3.50;;;1.30;;
66523;SDS011;53350;52.210;5.160;2023-04-30T15:01:52;3.38;;;1.10;;
66523;SDS011;53350;52.210;5.160;2023-04-30T15:04:18;3.63;;;1.25;;